Terminal Aerodrome Forecast
Issued by NWS Nashville, TN

Home | Current Version | Previous Version | Text Only | Print | Product List | Glossary On
Versions: 1 2 3 4 5 6 7 8 9 10 11 12 13 14 15 16 17 18
000
FTUS44 KOHX 292300
TAFBNA
TAF
KBNA 292322Z 3000/3024 19014G19KT P6SM SCT045
     FM300300 22007KT P6SM SCT025 BKN050
     FM300500 22008KT 6SM -SHRA BKN025
     FM301100 32006KT P6SM SCT050=

USA.gov is the U.S. government's official web portal to all federal, state and local government web resources and services.